createdAt,value
2016-08-04T00:00:54.979Z,0
2016-08-04T00:01:55.688Z,0
2016-08-04T00:02:54.945Z,0
2016-08-04T00:03:54.940Z,0
2016-08-04T00:04:55.642Z,0
2016-08-04T00:05:54.937Z,0
2016-08-04T00:06:54.948Z,0
2016-08-04T00:07:54.947Z,0
2016-08-04T00:08:55.635Z,0
2016-08-04T00:09:54.903Z,0
2016-08-04T00:10:54.897Z,0
2016-08-04T00:11:54.896Z,0
2016-08-04T00:12:54.858Z,0
2016-08-04T00:13:54.896Z,0
2016-08-04T00:14:54.862Z,0
2016-08-04T00:15:55.555Z,0
2016-08-04T00:16:55.517Z,0
2016-08-04T00:17:54.869Z,0
2016-08-04T00:18:55.543Z,0
2016-08-04T00:20:54.815Z,0
2016-08-04T00:21:55.492Z,0
2016-08-04T00:22:54.827Z,0
2016-08-04T00:23:54.776Z,0
2016-08-04T00:24:54.806Z,0
2016-08-04T00:25:54.756Z,0
2016-08-04T00:26:54.776Z,0
2016-08-04T00:27:54.782Z,0
2016-08-04T00:28:54.789Z,0
2016-08-04T00:29:56.161Z,0
2016-08-04T00:30:54.732Z,0
2016-08-04T00:31:54.748Z,0
2016-08-04T00:32:55.476Z,0
2016-08-04T00:33:54.748Z,0
2016-08-04T00:34:54.721Z,0
2016-08-04T00:35:54.705Z,0
2016-08-04T00:36:54.685Z,0
2016-08-04T00:37:55.401Z,0
2016-08-04T00:38:54.691Z,0
2016-08-04T00:39:55.400Z,0
2016-08-04T00:40:54.703Z,0
2016-08-04T00:41:55.385Z,0
2016-08-04T00:42:54.671Z,0
2016-08-04T00:43:54.657Z,0
2016-08-04T00:44:54.676Z,0
2016-08-04T00:45:55.246Z,0
2016-08-04T00:46:54.653Z,0
2016-08-04T00:47:54.641Z,0
2016-08-04T00:48:54.613Z,0
2016-08-04T00:49:54.656Z,0
2016-08-04T00:50:55.323Z,0
2016-08-04T00:51:54.626Z,0
2016-08-04T00:52:54.594Z,0
2016-08-04T00:53:54.573Z,0
2016-08-04T00:54:54.572Z,0
2016-08-04T00:55:54.572Z,0
2016-08-04T00:56:54.567Z,0
2016-08-04T00:57:54.548Z,0
2016-08-04T00:58:54.572Z,0
2016-08-04T00:59:54.541Z,0
2016-08-04T01:00:54.570Z,0
2016-08-04T01:01:54.528Z,0
2016-08-04T01:02:54.544Z,0
2016-08-04T01:03:55.207Z,0
2016-08-04T01:04:54.464Z,0
2016-08-04T01:05:54.480Z,0
2016-08-04T01:06:54.487Z,0
2016-08-04T01:07:54.446Z,0
2016-08-04T01:08:54.466Z,0
2016-08-04T01:09:54.461Z,0
2016-08-04T01:10:54.454Z,0
2016-08-04T01:11:55.174Z,0
2016-08-04T01:12:54.474Z,0
2016-08-04T01:13:54.439Z,0
2016-08-04T01:14:55.128Z,0
2016-08-04T01:15:55.151Z,0
2016-08-04T01:16:54.414Z,0
2016-08-04T01:17:55.091Z,0
2016-08-04T01:18:55.080Z,0
2016-08-04T01:20:54.352Z,0
2016-08-04T01:21:54.381Z,0
2016-08-04T01:22:55.091Z,0
2016-08-04T01:23:54.361Z,0
2016-08-04T01:24:54.349Z,0
2016-08-04T01:25:55.035Z,0
2016-08-04T01:26:55.071Z,0
2016-08-04T01:27:54.333Z,0
2016-08-04T01:28:55.043Z,0
2016-08-04T01:29:54.337Z,0
2016-08-04T01:30:54.321Z,0
2016-08-04T01:31:54.291Z,0
2016-08-04T01:32:54.302Z,0
2016-08-04T01:33:54.980Z,0
2016-08-04T01:35:54.249Z,0
2016-08-04T01:36:54.275Z,0
2016-08-04T01:37:54.247Z,0
2016-08-04T01:38:54.213Z,0
2016-08-04T01:39:55.630Z,0
2016-08-04T01:40:54.907Z,0
2016-08-04T01:41:54.195Z,0
2016-08-04T01:42:54.217Z,0
2016-08-04T01:43:54.226Z,0
2016-08-04T01:44:54.911Z,0
2016-08-04T01:45:54.204Z,0
2016-08-04T01:46:54.164Z,0
2016-08-04T01:47:54.197Z,0
2016-08-04T01:48:54.170Z,0
2016-08-04T01:49:54.163Z,0
2016-08-04T01:50:54.821Z,0
2016-08-04T01:51:54.833Z,0
2016-08-04T01:52:54.132Z,0
2016-08-04T01:53:54.127Z,0
2016-08-04T01:54:55.496Z,0
2016-08-04T01:55:54.080Z,0
2016-08-04T01:56:55.482Z,0
2016-08-04T01:57:54.075Z,0
2016-08-04T01:58:54.088Z,0
2016-08-04T01:59:54.097Z,0
2016-08-04T02:00:54.053Z,0
2016-08-04T02:01:54.065Z,0
2016-08-04T02:02:54.060Z,0
2016-08-04T02:03:54.033Z,0
2016-08-04T02:04:54.064Z,0
2016-08-04T02:05:54.018Z,0
2016-08-04T02:06:54.005Z,0
2016-08-04T02:07:56.083Z,0
2016-08-04T02:08:54.007Z,0
2016-08-04T02:09:54.038Z,0
2016-08-04T02:10:54.006Z,0
2016-08-04T02:11:53.986Z,0
2016-08-04T02:12:53.966Z,0
2016-08-04T02:13:53.980Z,0
2016-08-04T02:14:53.979Z,0
2016-08-04T02:15:53.946Z,0
2016-08-04T02:16:53.917Z,0
2016-08-04T02:17:53.912Z,0
2016-08-04T02:18:53.913Z,0
2016-08-04T02:19:53.921Z,0
2016-08-04T02:20:53.915Z,0
2016-08-04T02:21:53.913Z,0
2016-08-04T02:22:53.898Z,0
2016-08-04T02:23:53.875Z,0
2016-08-04T02:24:53.890Z,0
2016-08-04T02:25:54.562Z,0
2016-08-04T02:26:53.867Z,0
2016-08-04T02:27:53.844Z,0
2016-08-04T02:28:53.839Z,0
2016-08-04T02:29:53.808Z,0
2016-08-04T02:30:53.820Z,0
2016-08-04T02:31:54.529Z,0
2016-08-04T02:32:53.839Z,0
2016-08-04T02:33:53.791Z,0
2016-08-04T02:34:53.826Z,0
2016-08-04T02:35:53.792Z,0
2016-08-04T02:36:53.778Z,0
2016-08-04T02:37:53.770Z,0
2016-08-04T02:38:54.471Z,0
2016-08-04T02:39:53.763Z,0
2016-08-04T02:40:53.748Z,0
2016-08-04T02:41:53.744Z,0
2016-08-04T02:42:54.435Z,0
2016-08-04T02:43:54.432Z,0
2016-08-04T02:44:53.742Z,0
2016-08-04T02:45:53.728Z,0
2016-08-04T02:46:53.705Z,0
2016-08-04T02:47:55.795Z,0
2016-08-04T02:48:53.684Z,0
2016-08-04T02:49:53.648Z,0
2016-08-04T02:50:53.665Z,0
2016-08-04T02:51:55.046Z,0
2016-08-04T02:52:53.658Z,0
2016-08-04T02:53:53.676Z,0
2016-08-04T02:54:53.617Z,0
2016-08-04T02:55:53.631Z,0
2016-08-04T02:56:54.321Z,0
2016-08-04T02:57:53.605Z,0
2016-08-04T02:58:54.994Z,0
2016-08-04T02:59:53.618Z,0
2016-08-04T03:00:53.599Z,0
2016-08-04T03:01:54.290Z,0
2016-08-04T03:02:54.315Z,0
2016-08-04T03:03:53.551Z,0
2016-08-04T03:04:54.267Z,0
2016-08-04T03:05:53.574Z,0
2016-08-04T03:06:53.539Z,0
2016-08-04T03:07:54.989Z,0
2016-08-04T03:08:53.535Z,0
2016-08-04T03:09:53.510Z,0
2016-08-04T03:10:54.176Z,0
2016-08-04T03:11:54.900Z,0
2016-08-04T03:12:53.503Z,0
2016-08-04T03:13:54.876Z,0
2016-08-04T03:14:54.169Z,0
2016-08-04T03:15:54.155Z,0
2016-08-04T03:16:53.449Z,0
2016-08-04T03:17:53.438Z,0
2016-08-04T03:18:53.451Z,0
2016-08-04T03:19:54.850Z,0
2016-08-04T03:20:53.415Z,0
2016-08-04T03:21:53.428Z,0
2016-08-04T03:22:53.401Z,0
2016-08-04T03:23:53.401Z,0
2016-08-04T03:24:53.420Z,0
2016-08-04T03:25:53.424Z,0
2016-08-04T03:26:53.410Z,0
2016-08-04T03:27:54.766Z,0
2016-08-04T03:28:53.352Z,0
2016-08-04T03:29:53.394Z,0
2016-08-04T03:30:53.365Z,0
2016-08-04T03:31:53.346Z,0
2016-08-04T03:32:54.053Z,0
2016-08-04T03:33:54.043Z,0
2016-08-04T03:34:53.317Z,0
2016-08-04T03:35:53.306Z,0
2016-08-04T03:36:54.013Z,0
2016-08-04T03:37:53.313Z,0
2016-08-04T03:38:53.969Z,0
2016-08-04T03:39:54.004Z,0
2016-08-04T03:40:53.242Z,0
2016-08-04T03:41:53.289Z,0
2016-08-04T03:42:53.243Z,5
2016-08-04T03:43:53.954Z,5
2016-08-04T03:44:53.944Z,5
2016-08-04T03:45:53.232Z,5
2016-08-04T03:46:53.972Z,10
2016-08-04T03:47:53.204Z,10
2016-08-04T03:48:53.180Z,10
2016-08-04T03:49:53.913Z,10
2016-08-04T03:50:53.920Z,15
2016-08-04T03:51:53.876Z,15
2016-08-04T03:52:53.171Z,15
2016-08-04T03:53:53.168Z,20
2016-08-04T03:54:53.149Z,20
2016-08-04T03:55:53.159Z,20
2016-08-04T03:56:53.145Z,25
2016-08-04T03:57:53.141Z,25
2016-08-04T03:58:53.141Z,25
2016-08-04T03:59:53.833Z,30
2016-08-04T04:00:53.123Z,30
2016-08-04T04:01:53.102Z,35
2016-08-04T04:02:53.096Z,35
2016-08-04T04:03:53.777Z,40
2016-08-04T04:04:53.059Z,45
2016-08-04T04:05:53.092Z,45
2016-08-04T04:06:53.074Z,50
2016-08-04T04:07:53.038Z,55
2016-08-04T04:08:53.057Z,55
2016-08-04T04:09:53.055Z,60
2016-08-04T04:10:53.030Z,65
2016-08-04T04:11:53.764Z,65
2016-08-04T04:12:53.028Z,70
2016-08-04T04:13:53.728Z,75
2016-08-04T04:14:53.024Z,75
2016-08-04T04:15:53.690Z,80
2016-08-04T04:16:53.001Z,85
2016-08-04T04:17:53.012Z,85
2016-08-04T04:18:52.997Z,90
2016-08-04T04:19:52.964Z,95
2016-08-04T04:20:53.663Z,100
2016-08-04T04:21:52.948Z,100
2016-08-04T04:22:52.941Z,105
2016-08-04T04:23:52.940Z,110
2016-08-04T04:24:53.619Z,110
2016-08-04T04:25:52.918Z,115
2016-08-04T04:26:52.917Z,115
2016-08-04T04:27:52.910Z,120
2016-08-04T04:28:52.870Z,125
2016-08-04T04:29:53.584Z,130
2016-08-04T04:30:53.591Z,135
2016-08-04T04:31:53.596Z,140
2016-08-04T04:32:52.873Z,145
2016-08-04T04:33:52.866Z,150
2016-08-04T04:34:52.871Z,155
2016-08-04T04:35:52.829Z,160
2016-08-04T04:36:53.552Z,165
2016-08-04T04:37:52.831Z,170
2016-08-04T04:38:52.831Z,175
2016-08-04T04:39:54.202Z,180
2016-08-04T04:40:52.838Z,185
2016-08-04T04:41:53.522Z,190
2016-08-04T04:42:53.542Z,190
2016-08-04T04:43:52.777Z,195
2016-08-04T04:44:52.803Z,200
2016-08-04T04:45:52.817Z,205
2016-08-04T04:46:54.163Z,215
2016-08-04T04:47:53.439Z,220
2016-08-04T04:48:52.751Z,245
2016-08-04T04:49:52.758Z,370
2016-08-04T04:50:52.720Z,505
2016-08-04T04:51:52.721Z,535
2016-08-04T04:52:52.734Z,560
2016-08-04T04:53:52.699Z,590
2016-08-04T04:54:52.715Z,610
2016-08-04T04:55:52.718Z,620
2016-08-04T04:56:52.692Z,645
2016-08-04T04:57:52.698Z,670
2016-08-04T04:58:52.663Z,665
2016-08-04T04:59:52.683Z,665
2016-08-04T05:00:52.697Z,675
2016-08-04T05:01:52.650Z,685
2016-08-04T05:02:52.645Z,670
2016-08-04T05:03:52.642Z,680
2016-08-04T05:04:52.621Z,665
2016-08-04T05:06:52.624Z,665
2016-08-04T05:07:52.648Z,670
2016-08-04T05:08:52.600Z,705
2016-08-04T05:09:53.335Z,755
2016-08-04T05:10:52.583Z,770
2016-08-04T05:11:52.621Z,775
2016-08-04T05:12:53.350Z,790
2016-08-04T05:13:52.576Z,835
2016-08-04T05:14:52.591Z,720
2016-08-04T05:15:53.271Z,885
2016-08-04T05:16:52.577Z,875
2016-08-04T05:17:52.569Z,785
2016-08-04T05:18:52.566Z,805
2016-08-04T05:19:53.942Z,860
2016-08-04T05:21:52.542Z,835
2016-08-04T05:22:52.549Z,845
2016-08-04T05:23:53.229Z,935
2016-08-04T05:24:53.220Z,750
2016-08-04T05:25:52.531Z,960
2016-08-04T05:26:52.503Z,935
2016-08-04T05:27:52.481Z,720
2016-08-04T05:28:53.190Z,945
2016-08-04T05:29:52.487Z,935
2016-08-04T05:30:53.189Z,860
2016-08-04T05:31:53.212Z,825
2016-08-04T05:32:53.864Z,805
2016-08-04T05:33:52.453Z,755
2016-08-04T05:34:52.487Z,845
2016-08-04T05:35:52.479Z,1015
2016-08-04T05:36:52.454Z,1030
2016-08-04T05:37:52.467Z,1050
2016-08-04T05:38:52.453Z,1050
2016-08-04T05:39:52.444Z,1055
2016-08-04T05:40:53.166Z,940
2016-08-04T05:41:52.426Z,730
2016-08-04T05:42:52.449Z,950
2016-08-04T05:43:52.403Z,960
2016-08-04T05:44:53.833Z,940
2016-08-04T05:45:52.402Z,1095
2016-08-04T05:46:53.081Z,1140
2016-08-04T05:47:52.368Z,1170
2016-08-04T05:48:52.379Z,1270
2016-08-04T05:49:52.396Z,1175
2016-08-04T05:50:52.407Z,1100
2016-08-04T05:51:52.369Z,1190
2016-08-04T05:52:52.418Z,1250
2016-08-04T05:53:53.074Z,1310
2016-08-04T05:54:52.342Z,1345
2016-08-04T05:55:52.354Z,1280
2016-08-04T05:56:52.346Z,1240
2016-08-04T05:57:52.356Z,1305
2016-08-04T05:58:52.340Z,1375
2016-08-04T05:59:52.333Z,1390
2016-08-04T06:00:53.069Z,1445
2016-08-04T06:01:52.318Z,1400
2016-08-04T06:02:53.035Z,1345
2016-08-04T06:03:53.727Z,1355
2016-08-04T06:04:52.323Z,1360
2016-08-04T06:05:52.993Z,1215
2016-08-04T06:06:52.300Z,1255
2016-08-04T06:07:52.298Z,1215
2016-08-04T06:08:53.012Z,1075
2016-08-04T06:09:53.005Z,1200
2016-08-04T06:10:52.978Z,1320
2016-08-04T06:11:52.273Z,1180
2016-08-04T06:12:52.299Z,1165
2016-08-04T06:13:52.271Z,1275
2016-08-04T06:14:52.262Z,1240
2016-08-04T06:15:52.274Z,1360
2016-08-04T06:16:52.957Z,1370
2016-08-04T06:17:52.963Z,1380
2016-08-04T06:18:52.936Z,1425
2016-08-04T06:19:52.280Z,1380
2016-08-04T06:20:52.203Z,1510
2016-08-04T06:21:52.207Z,1535
2016-08-04T06:22:52.207Z,1275
2016-08-04T06:23:53.637Z,1165
2016-08-04T06:24:52.230Z,1395
2016-08-04T06:25:52.922Z,1460
2016-08-04T06:26:52.196Z,1400
2016-08-04T06:27:52.938Z,1520
2016-08-04T06:28:52.906Z,1540
2016-08-04T06:29:52.889Z,1600
2016-08-04T06:30:52.191Z,1550
2016-08-04T06:31:52.202Z,1585
2016-08-04T06:32:52.161Z,1740
2016-08-04T06:33:52.183Z,1710
2016-08-04T06:34:52.194Z,1755
2016-08-04T06:35:52.882Z,1860
2016-08-04T06:36:53.594Z,1195
2016-08-04T06:37:52.143Z,2080
2016-08-04T06:38:52.141Z,1970
2016-08-04T06:39:52.174Z,1645
2016-08-04T06:40:52.137Z,1860
2016-08-04T06:41:52.154Z,1790
2016-08-04T06:42:52.173Z,2165
2016-08-04T06:43:52.824Z,1620
2016-08-04T06:44:52.151Z,1550
2016-08-04T06:45:52.930Z,950
2016-08-04T06:46:52.125Z,1585
2016-08-04T06:47:52.792Z,940
2016-08-04T06:48:52.112Z,1395
2016-08-04T06:49:52.085Z,1450
2016-08-04T06:50:52.796Z,1465
2016-08-04T06:51:52.116Z,1365
2016-08-04T06:52:52.800Z,1485
2016-08-04T06:53:52.788Z,1500
2016-08-04T06:54:52.100Z,1640
2016-08-04T06:55:53.440Z,1925
2016-08-04T06:56:52.076Z,1805
2016-08-04T06:57:52.074Z,1495
2016-08-04T06:58:52.769Z,1350
2016-08-04T06:59:52.050Z,1520
2016-08-04T07:00:52.780Z,1525
2016-08-04T07:01:52.077Z,1845
2016-08-04T07:02:52.069Z,2010
2016-08-04T07:03:53.466Z,1860
2016-08-04T07:04:52.782Z,1915
2016-08-04T07:05:52.758Z,2420
2016-08-04T07:06:52.061Z,2430
2016-08-04T07:07:52.051Z,2260
2016-08-04T07:08:52.720Z,2365
2016-08-04T07:09:52.027Z,2335
2016-08-04T07:10:52.033Z,2360
2016-08-04T07:11:52.047Z,2375
2016-08-04T07:12:52.040Z,2365
2016-08-04T07:13:52.037Z,2580
2016-08-04T07:14:52.748Z,2245
2016-08-04T07:15:52.723Z,2415
2016-08-04T07:16:52.024Z,2455
2016-08-04T07:17:52.026Z,2245
2016-08-04T07:18:52.011Z,2670
2016-08-04T07:19:52.034Z,2930
2016-08-04T07:20:52.007Z,2825
2016-08-04T07:21:52.706Z,2890
2016-08-04T07:22:52.012Z,2425
2016-08-04T07:23:52.690Z,2525
2016-08-04T07:24:52.001Z,2420
2016-08-04T07:25:53.394Z,2935
2016-08-04T07:26:52.007Z,2420
2016-08-04T07:27:51.997Z,2265
2016-08-04T07:28:52.683Z,2180
2016-08-04T07:29:51.969Z,1910
2016-08-04T07:30:52.647Z,1990
2016-08-04T07:31:51.967Z,2070
2016-08-04T07:32:51.976Z,2435
2016-08-04T07:33:51.931Z,2515
2016-08-04T07:34:53.360Z,2265
2016-08-04T07:35:51.947Z,2110
2016-08-04T07:36:54.053Z,2105
2016-08-04T07:37:51.982Z,2005
2016-08-04T07:38:51.975Z,2065
2016-08-04T07:39:51.916Z,2050
2016-08-04T07:40:52.640Z,2075
2016-08-04T07:41:52.649Z,2205
2016-08-04T07:42:52.624Z,2135
2016-08-04T07:43:51.913Z,2365
2016-08-04T07:44:51.935Z,2495
2016-08-04T07:45:51.897Z,2090
2016-08-04T07:46:52.612Z,2265
2016-08-04T07:47:51.901Z,2985
2016-08-04T07:48:51.892Z,3370
2016-08-04T07:49:51.910Z,3090
2016-08-04T07:50:51.898Z,2825
2016-08-04T07:51:51.910Z,2595
2016-08-04T07:52:51.904Z,2395
2016-08-04T07:53:52.573Z,2555
2016-08-04T07:54:51.856Z,2650
2016-08-04T07:55:51.887Z,2945
2016-08-04T07:56:52.560Z,2550
2016-08-04T07:57:52.558Z,2495
2016-08-04T07:58:52.531Z,2370
2016-08-04T07:59:53.995Z,2820
2016-08-04T08:00:51.853Z,3230
2016-08-04T08:01:52.548Z,3320
2016-08-04T08:02:51.855Z,3065
2016-08-04T08:03:51.867Z,3060
2016-08-04T08:04:51.859Z,3330
2016-08-04T08:05:51.827Z,3210
2016-08-04T08:06:52.518Z,2780
2016-08-04T08:07:53.258Z,2830
2016-08-04T08:08:51.827Z,3270
2016-08-04T08:09:51.817Z,2855
2016-08-04T08:10:51.808Z,2505
2016-08-04T08:11:51.803Z,2505
2016-08-04T08:12:52.525Z,2655
2016-08-04T08:13:52.524Z,2785
2016-08-04T08:14:52.506Z,3385
2016-08-04T08:15:51.794Z,3945
2016-08-04T08:16:53.154Z,3550
2016-08-04T08:17:51.782Z,2790
2016-08-04T08:18:51.813Z,2430
2016-08-04T08:19:51.772Z,2460
2016-08-04T08:20:51.786Z,2130
2016-08-04T08:21:51.769Z,2215
2016-08-04T08:22:51.776Z,2420
2016-08-04T08:23:52.470Z,2610
2016-08-04T08:24:53.864Z,2965
2016-08-04T08:25:51.738Z,2895
2016-08-04T08:26:51.749Z,2730
2016-08-04T08:27:51.737Z,3020
2016-08-04T08:28:51.771Z,3060
2016-08-04T08:29:51.736Z,3165
2016-08-04T08:30:52.435Z,3920
2016-08-04T08:31:51.759Z,4170
2016-08-04T08:32:52.432Z,4205
2016-08-04T08:33:51.708Z,3660
2016-08-04T08:34:51.728Z,3220
2016-08-04T08:35:52.414Z,3110
2016-08-04T08:36:51.730Z,3165
2016-08-04T08:37:53.813Z,2955
2016-08-04T08:38:51.718Z,3055
2016-08-04T08:39:52.417Z,3420
2016-08-04T08:40:51.714Z,3135
2016-08-04T08:41:52.410Z,2870
2016-08-04T08:42:51.694Z,3415
2016-08-04T08:43:51.708Z,3750
2016-08-04T08:44:51.680Z,3680
2016-08-04T08:45:51.705Z,3300
2016-08-04T08:46:53.081Z,3450
2016-08-04T08:47:52.393Z,3485
2016-08-04T08:48:51.679Z,3755
2016-08-04T08:49:51.710Z,3225
2016-08-04T08:50:51.862Z,2930
2016-08-04T08:51:51.684Z,3485
2016-08-04T08:52:51.680Z,3505
2016-08-04T08:53:53.101Z,3575
2016-08-04T08:54:51.669Z,2915
2016-08-04T08:55:52.364Z,3215
2016-08-04T08:56:51.653Z,2995
2016-08-04T08:57:52.388Z,3245
2016-08-04T08:58:52.366Z,3605
2016-08-04T08:59:52.358Z,3775
2016-08-04T09:00:51.647Z,3685
2016-08-04T09:01:51.693Z,3950
2016-08-04T09:02:51.659Z,4200
2016-08-04T09:03:51.632Z,3940
2016-08-04T09:04:51.656Z,3495
2016-08-04T09:05:52.346Z,3440
2016-08-04T09:06:51.649Z,3670
2016-08-04T09:07:51.631Z,4070
2016-08-04T09:08:51.615Z,4915
2016-08-04T09:09:52.332Z,4600
2016-08-04T09:10:51.649Z,3570
2016-08-04T09:11:51.628Z,3445
2016-08-04T09:12:51.619Z,3815
2016-08-04T09:13:52.331Z,4385
2016-08-04T09:14:51.641Z,4140
2016-08-04T09:15:51.609Z,4110
2016-08-04T09:16:51.621Z,4595
2016-08-04T09:17:51.618Z,4505
2016-08-04T09:18:51.600Z,4240
2016-08-04T09:19:51.593Z,4170
2016-08-04T09:20:51.590Z,4305
2016-08-04T09:21:52.312Z,3700
2016-08-04T09:22:51.594Z,3735
2016-08-04T09:23:51.609Z,4485
2016-08-04T09:24:51.571Z,4425
2016-08-04T09:25:51.600Z,3655
2016-08-04T09:26:51.580Z,3790
2016-08-04T09:27:51.595Z,3915
2016-08-04T09:28:51.606Z,4070
2016-08-04T09:29:51.596Z,4260
2016-08-04T09:30:51.600Z,3830
2016-08-04T09:31:51.596Z,3650
2016-08-04T09:32:52.292Z,3945
2016-08-04T09:33:52.265Z,3950
2016-08-04T09:34:51.583Z,4135
2016-08-04T09:35:51.564Z,1160
2016-08-04T09:37:51.551Z,4535
2016-08-04T09:38:53.020Z,4430
2016-08-04T09:39:51.593Z,4220
2016-08-04T09:40:52.258Z,2135
2016-08-04T09:41:51.548Z,4745
2016-08-04T09:42:51.532Z,4355
2016-08-04T09:43:51.594Z,3925
2016-08-04T09:44:51.572Z,3175
2016-08-04T09:45:51.544Z,4640
2016-08-04T09:46:52.273Z,1130
2016-08-04T09:47:52.256Z,4900
2016-08-04T09:48:51.579Z,1225
2016-08-04T09:49:51.562Z,1435
2016-08-04T09:50:53.640Z,2645
2016-08-04T09:52:51.558Z,5605
2016-08-04T09:53:51.557Z,5395
2016-08-04T09:54:52.931Z,4950
2016-08-04T09:55:51.523Z,6150
2016-08-04T09:56:51.515Z,6300
2016-08-04T09:57:52.253Z,5360
2016-08-04T09:58:51.539Z,1705
2016-08-04T09:59:51.540Z,5440
2016-08-04T10:00:51.567Z,5575
2016-08-04T10:01:51.550Z,4865
2016-08-04T10:02:51.527Z,4135
2016-08-04T10:03:52.225Z,4795
2016-08-04T10:04:51.545Z,4730
2016-08-04T10:05:51.530Z,4090
2016-08-04T10:06:51.497Z,3550
2016-08-04T10:07:51.526Z,4625
2016-08-04T10:08:51.508Z,5680
2016-08-04T10:09:51.520Z,2545
2016-08-04T10:10:51.504Z,4615
2016-08-04T10:11:52.221Z,4530
2016-08-04T10:12:51.547Z,4230
2016-08-04T10:13:52.232Z,3220
2016-08-04T10:14:51.504Z,3240
2016-08-04T10:15:51.496Z,4570
2016-08-04T10:16:51.510Z,5630
2016-08-04T10:17:51.493Z,5405
2016-08-04T10:18:51.500Z,1820
2016-08-04T10:19:52.203Z,5580
2016-08-04T10:20:51.489Z,1465
2016-08-04T10:21:52.175Z,3030
2016-08-04T10:22:51.543Z,5175
2016-08-04T10:23:51.485Z,4350
2016-08-04T10:24:51.506Z,4310
2016-08-04T10:25:52.892Z,5185
2016-08-04T10:26:52.864Z,1845
2016-08-04T10:27:51.497Z,4215
2016-08-04T10:28:51.470Z,5170
2016-08-04T10:29:51.494Z,4870
2016-08-04T10:30:51.478Z,4530
2016-08-04T10:31:51.474Z,4120
2016-08-04T10:32:52.862Z,4030
2016-08-04T10:33:52.188Z,4750
2016-08-04T10:34:51.489Z,5390
2016-08-04T10:35:51.478Z,4855
2016-08-04T10:36:52.174Z,4910
2016-08-04T10:37:51.465Z,3725
2016-08-04T10:38:51.459Z,6065
2016-08-04T10:39:51.458Z,5885
2016-08-04T10:40:51.451Z,5045
2016-08-04T10:41:51.459Z,5830
2016-08-04T10:42:51.474Z,6725
2016-08-04T10:43:52.884Z,4945
2016-08-04T10:44:52.176Z,2935
2016-08-04T10:45:52.179Z,2165
2016-08-04T10:46:51.457Z,6370
2016-08-04T10:47:51.451Z,5745
2016-08-04T10:48:51.474Z,4790
2016-08-04T10:49:51.431Z,5310
2016-08-04T10:50:51.451Z,5105
2016-08-04T10:51:52.136Z,5725
2016-08-04T10:52:51.453Z,2175
2016-08-04T10:53:52.111Z,7210
2016-08-04T10:54:51.438Z,1790
2016-08-04T10:55:51.421Z,1290
2016-08-04T10:56:51.416Z,2500
2016-08-04T10:57:51.439Z,2350
2016-08-04T10:58:52.124Z,4295
2016-08-04T10:59:52.160Z,4690
2016-08-04T11:00:51.423Z,1525
2016-08-04T11:01:51.416Z,3325
2016-08-04T11:02:51.443Z,5490
2016-08-04T11:03:51.434Z,5125
2016-08-04T11:04:52.106Z,1925
2016-08-04T11:05:52.103Z,4665
2016-08-04T11:06:53.492Z,2750
2016-08-04T11:07:51.442Z,2700
2016-08-04T11:08:51.414Z,2600
2016-08-04T11:09:51.409Z,2250
2016-08-04T11:10:51.386Z,5835
2016-08-04T11:11:51.407Z,5770
2016-08-04T11:12:51.401Z,5190
2016-08-04T11:13:51.395Z,3205
2016-08-04T11:14:51.365Z,5345
2016-08-04T11:15:51.372Z,2750
2016-08-04T11:16:52.125Z,1300
2016-08-04T11:17:53.467Z,1330
2016-08-04T11:18:51.394Z,1135
2016-08-04T11:19:51.393Z,1550
2016-08-04T11:20:51.375Z,2610
2016-08-04T11:21:51.362Z,6030
2016-08-04T11:22:51.368Z,2565
2016-08-04T11:23:52.056Z,3605
2016-08-04T11:24:51.360Z,2115
2016-08-04T11:25:51.379Z,1655
2016-08-04T11:26:51.592Z,1460
2016-08-04T11:27:51.357Z,1250
2016-08-04T11:28:51.376Z,1150
2016-08-04T11:29:52.090Z,1325
2016-08-04T11:30:52.075Z,1335
2016-08-04T11:31:52.051Z,2040
2016-08-04T11:32:51.336Z,1635
2016-08-04T11:33:51.340Z,1870
2016-08-04T11:34:52.060Z,6295
2016-08-04T11:35:51.344Z,4855
2016-08-04T11:36:52.049Z,5925
2016-08-04T11:37:51.362Z,3255
2016-08-04T11:38:51.551Z,3575
2016-08-04T11:39:51.349Z,4035
2016-08-04T11:40:51.505Z,2685
2016-08-04T11:41:52.022Z,4305
2016-08-04T11:42:51.310Z,4475
2016-08-04T11:43:52.015Z,3130
2016-08-04T11:44:52.721Z,1715
2016-08-04T11:45:52.044Z,1670
2016-08-04T11:46:52.028Z,1790
2016-08-04T11:47:51.318Z,3995
2016-08-04T11:48:51.342Z,2845
2016-08-04T11:49:51.334Z,1770
2016-08-04T11:50:51.305Z,4575
2016-08-04T11:51:52.008Z,3365
2016-08-04T11:52:51.330Z,1825
2016-08-04T11:53:52.709Z,1590
2016-08-04T11:54:51.312Z,1475
2016-08-04T11:55:51.286Z,1465
2016-08-04T11:56:51.305Z,1535
2016-08-04T11:57:51.998Z,1420
2016-08-04T11:58:51.279Z,1535
2016-08-04T11:59:52.666Z,1860
2016-08-04T12:00:51.252Z,2100
2016-08-04T12:01:51.282Z,5875
2016-08-04T12:02:52.688Z,1910
2016-08-04T12:03:51.966Z,1820
2016-08-04T12:04:51.278Z,4085
2016-08-04T12:05:51.991Z,2050
2016-08-04T12:06:51.280Z,1735
2016-08-04T12:07:51.268Z,1570
2016-08-04T12:08:51.257Z,1750
2016-08-04T12:09:51.271Z,2170
2016-08-04T12:10:51.267Z,3790
2016-08-04T12:11:51.980Z,2650
2016-08-04T12:12:51.990Z,2430
2016-08-04T12:13:51.970Z,3050
2016-08-04T12:14:51.490Z,2545
2016-08-04T12:15:51.273Z,7415
2016-08-04T12:16:51.250Z,3595
2016-08-04T12:17:51.459Z,6615
2016-08-04T12:18:51.243Z,5265
2016-08-04T12:19:51.236Z,2565
2016-08-04T12:20:51.246Z,1930
2016-08-04T12:21:51.240Z,2365
2016-08-04T12:22:51.215Z,5135
2016-08-04T12:23:51.243Z,5170
2016-08-04T12:24:51.247Z,5805
2016-08-04T12:25:51.241Z,3090
2016-08-04T12:26:51.256Z,2445
2016-08-04T12:27:51.712Z,4535
2016-08-04T12:28:52.145Z,3200
2016-08-04T12:29:52.145Z,5155
2016-08-04T12:30:51.412Z,5020
2016-08-04T12:31:51.214Z,2720
2016-08-04T12:32:51.250Z,1520
2016-08-04T12:33:52.598Z,1460
2016-08-04T12:34:51.957Z,1510
2016-08-04T12:35:51.211Z,1910
2016-08-04T12:36:51.220Z,1945
2016-08-04T12:37:52.128Z,1600
2016-08-04T12:38:51.219Z,1555
2016-08-04T12:39:51.228Z,1340
2016-08-04T12:40:52.164Z,1475
2016-08-04T12:41:51.220Z,1850
2016-08-04T12:42:51.214Z,1620
2016-08-04T12:43:51.216Z,1580
2016-08-04T12:44:51.251Z,1610
2016-08-04T12:45:51.927Z,1560
2016-08-04T12:46:51.400Z,1445
2016-08-04T12:47:51.227Z,1650
2016-08-04T12:48:51.212Z,1775
2016-08-04T12:49:51.170Z,1540
2016-08-04T12:50:51.199Z,1380
2016-08-04T12:51:51.203Z,1735
2016-08-04T12:52:51.152Z,2500
2016-08-04T12:53:51.210Z,3260
2016-08-04T12:54:51.185Z,2105
2016-08-04T12:55:51.182Z,1630
2016-08-04T12:56:51.343Z,1455
2016-08-04T12:57:51.190Z,1425
2016-08-04T12:58:51.159Z,1290
2016-08-04T12:59:51.175Z,1535
2016-08-04T13:00:51.136Z,4360
2016-08-04T13:01:51.162Z,1780
2016-08-04T13:02:51.154Z,1570
2016-08-04T13:03:51.143Z,1580
2016-08-04T13:04:51.155Z,1710
2016-08-04T13:05:51.138Z,1845
2016-08-04T13:06:51.351Z,2030
2016-08-04T13:07:51.117Z,1980
2016-08-04T13:08:51.304Z,1960
2016-08-04T13:09:51.306Z,1845
2016-08-04T13:10:51.091Z,1655
2016-08-04T13:11:51.819Z,2035
2016-08-04T13:12:51.125Z,3760
2016-08-04T13:13:51.115Z,2085
2016-08-04T13:14:51.105Z,1975
2016-08-04T13:15:51.102Z,1795
2016-08-04T13:16:51.130Z,1485
2016-08-04T13:17:51.084Z,1415
2016-08-04T13:18:51.102Z,1205
2016-08-04T13:19:51.073Z,1155
2016-08-04T13:20:51.105Z,1365
2016-08-04T13:21:51.310Z,1420
2016-08-04T13:22:51.308Z,1410
2016-08-04T13:23:51.053Z,1370
2016-08-04T13:24:51.086Z,1355
2016-08-04T13:25:51.069Z,1340
2016-08-04T13:26:51.068Z,1585
2016-08-04T13:27:51.066Z,1720
2016-08-04T13:28:51.052Z,1710
2016-08-04T13:29:51.026Z,1545
2016-08-04T13:30:51.038Z,1325
2016-08-04T13:31:51.041Z,1265
2016-08-04T13:32:51.048Z,1410
2016-08-04T13:33:51.053Z,1765
2016-08-04T13:34:51.236Z,1615
2016-08-04T13:35:51.219Z,1585
2016-08-04T13:36:51.036Z,1705
2016-08-04T13:37:51.014Z,1630
2016-08-04T13:38:51.467Z,1545
2016-08-04T13:39:51.017Z,1520
2016-08-04T13:40:51.014Z,1835
2016-08-04T13:41:51.206Z,1730
2016-08-04T13:42:50.996Z,1425
2016-08-04T13:43:50.994Z,1420
2016-08-04T13:44:51.024Z,1290
2016-08-04T13:45:50.987Z,1160
2016-08-04T13:46:51.010Z,985
2016-08-04T13:47:51.166Z,815
2016-08-04T13:48:50.992Z,655
2016-08-04T13:49:50.979Z,650
2016-08-04T13:50:50.982Z,695
2016-08-04T13:51:50.963Z,775
2016-08-04T13:53:50.966Z,985